TimeEST,TemperatureF,Dew PointF,Humidity,Sea Level PressureIn,VisibilityMPH,Wind Direction,Wind SpeedMPH,Gust SpeedMPH,PrecipitationIn,Events,Conditions,WindDirDegrees,DateUTC
12:54 AM,46.0,30.9,56,30.13,10.0,WNW,3.5,-,N/A,,Overcast,290,2012-11-04 04:54:00
1:54 AM,46.0,30.9,56,30.11,10.0,NNW,4.6,-,N/A,,Overcast,330,2012-11-04 05:54:00
1:54 AM,45.0,33.1,63,30.09,10.0,North,3.5,-,N/A,,Overcast,350,2012-11-04 06:54:00
2:54 AM,45.0,32.0,60,30.08,10.0,Calm,Calm,-,N/A,,Overcast,0,2012-11-04 07:54:00
3:54 AM,46.0,32.0,58,30.09,10.0,WNW,3.5,-,N/A,,Overcast,300,2012-11-04 08:54:00
4:54 AM,46.0,32.0,58,30.10,10.0,Calm,Calm,-,N/A,,Overcast,0,2012-11-04 09:54:00
5:54 AM,46.0,33.1,61,30.10,10.0,North,3.5,-,0.00,,Overcast,350,2012-11-04 10:54:00
6:54 AM,46.0,32.0,58,30.11,10.0,Calm,Calm,-,N/A,,Overcast,0,2012-11-04 11:54:00
7:54 AM,46.0,33.1,61,30.12,10.0,NE,4.6,-,N/A,,Overcast,40,2012-11-04 12:54:00
8:54 AM,46.0,30.9,56,30.12,10.0,ENE,6.9,-,N/A,,Overcast,60,2012-11-04 13:54:00
9:54 AM,48.0,30.9,52,30.11,10.0,East,4.6,-,N/A,,Overcast,80,2012-11-04 14:54:00
10:54 AM,50.0,30.0,46,30.10,10.0,Variable,3.5,-,N/A,,Overcast,0,2012-11-04 15:54:00
11:54 AM,50.0,30.9,48,30.07,10.0,Calm,Calm,-,N/A,,Mostly Cloudy,0,2012-11-04 16:54:00
12:54 PM,54.0,32.0,43,30.04,10.0,NW,4.6,-,N/A,,Mostly Cloudy,320,2012-11-04 17:54:00
1:54 PM,54.0,32.0,43,30.02,10.0,Variable,3.5,-,N/A,,Mostly Cloudy,0,2012-11-04 18:54:00
2:54 PM,54.0,33.1,45,30.01,10.0,North,6.9,-,N/A,,Mostly Cloudy,350,2012-11-04 19:54:00
3:54 PM,53.1,34.0,48,30.01,10.0,North,6.9,-,N/A,,Overcast,350,2012-11-04 20:54:00
4:54 PM,50.0,35.1,57,30.02,10.0,North,5.8,-,N/A,,Mostly Cloudy,10,2012-11-04 21:54:00
5:54 PM,48.9,34.0,56,30.03,10.0,Calm,Calm,-,N/A,,Mostly Cloudy,0,2012-11-04 22:54:00
6:54 PM,46.0,36.0,68,30.04,10.0,ENE,3.5,-,N/A,,Mostly Cloudy,70,2012-11-04 23:54:00
7:54 PM,43.0,35.1,74,30.04,10.0,ENE,4.6,-,N/A,,Mostly Cloudy,60,2012-11-05 00:54:00
8:54 PM,39.9,34.0,79,30.06,10.0,Calm,Calm,-,N/A,,Scattered Clouds,0,2012-11-05 01:54:00
9:54 PM,39.9,35.1,83,30.06,10.0,North,3.5,-,N/A,,Scattered Clouds,360,2012-11-05 02:54:00
10:54 PM,39.9,32.0,73,30.06,10.0,North,9.2,-,N/A,,Scattered Clouds,10,2012-11-05 03:54:00